Williamson, Iowa
Current Conditions -  °F | °C
As of 8:15 PM on Friday 19 Dec 2014 (Local Time) from KCNC Reporting Station
Haze Haze  
Wind Chill: 26°   Ceiling: 400
Heat Index: 32°   Visibility: 2mi
Dew Point: 30°   Wind: 7mph
Humidity: 93%   Direction: 150°SSE
Pressure: 30.2"   Gusts: NA
Location:  41.09°N, 93.25°W
Report Text: KCNC 200215Z AUTO 15006KT 2SM BR OVC004 M00/M01 A3020 RMK AO2
Loading
Personal Weather Stations






























Interactive Weather Map New forecast layout! Learn more

10-Day Weather Forecast

Advertisements
Track Severe Weather on mobile